sensor_id;sensor_type;location;lat;lon;timestamp;pressure;altitude;pressure_sealevel;temperature;humidity
40502;BME280;29631;49.168;9.848;2023-03-15T00:02:02;96139.09;;;9.78;78.96
40502;BME280;29631;49.168;9.848;2023-03-15T00:04:28;96126.00;;;9.65;78.49
40502;BME280;29631;49.168;9.848;2023-03-15T00:06:57;96127.88;;;9.58;78.18
40502;BME280;29631;49.168;9.848;2023-03-15T00:09:23;96145.28;;;9.59;78.36
40502;BME280;29631;49.168;9.848;2023-03-15T00:11:51;96151.16;;;9.54;78.93
40502;BME280;29631;49.168;9.848;2023-03-15T00:14:19;96168.16;;;9.58;78.26
40502;BME280;29631;49.168;9.848;2023-03-15T00:16:46;96131.66;;;9.31;78.09
40502;BME280;29631;49.168;9.848;2023-03-15T00:19:12;96139.75;;;9.36;78.39
40502;BME280;29631;49.168;9.848;2023-03-15T00:21:39;96186.59;;;9.52;77.95
40502;BME280;29631;49.168;9.848;2023-03-15T00:24:11;96139.19;;;9.21;78.71
40502;BME280;29631;49.168;9.848;2023-03-15T00:26:37;96172.91;;;9.37;77.73
40502;BME280;29631;49.168;9.848;2023-03-15T00:29:03;96154.94;;;9.28;78.41
40502;BME280;29631;49.168;9.848;2023-03-15T00:31:29;96181.78;;;9.49;78.24
40502;BME280;29631;49.168;9.848;2023-03-15T00:33:55;96163.41;;;9.36;77.70
40502;BME280;29631;49.168;9.848;2023-03-15T00:36:23;96176.19;;;9.33;77.54
40502;BME280;29631;49.168;9.848;2023-03-15T00:38:50;96175.75;;;9.36;78.02
40502;BME280;29631;49.168;9.848;2023-03-15T00:41:17;96183.84;;;9.34;77.79
40502;BME280;29631;49.168;9.848;2023-03-15T00:43:45;96202.88;;;9.36;78.34
40502;BME280;29631;49.168;9.848;2023-03-15T00:46:12;96222.66;;;9.45;77.94
40502;BME280;29631;49.168;9.848;2023-03-15T00:48:38;96221.47;;;9.41;78.32
40502;BME280;29631;49.168;9.848;2023-03-15T00:51:10;96216.81;;;9.37;78.15
40502;BME280;29631;49.168;9.848;2023-03-15T00:53:40;96205.69;;;9.35;78.27
40502;BME280;29631;49.168;9.848;2023-03-15T00:56:10;96208.53;;;9.33;78.05
40502;BME280;29631;49.168;9.848;2023-03-15T00:58:37;96229.94;;;9.43;77.96
40502;BME280;29631;49.168;9.848;2023-03-15T01:01:17;96206.91;;;9.32;77.96
40502;BME280;29631;49.168;9.848;2023-03-15T01:03:44;96244.13;;;9.42;77.79
40502;BME280;29631;49.168;9.848;2023-03-15T01:06:22;96240.53;;;9.30;77.87
40502;BME280;29631;49.168;9.848;2023-03-15T01:08:48;96246.56;;;9.31;77.98
40502;BME280;29631;49.168;9.848;2023-03-15T01:11:22;96240.91;;;9.27;77.97
40502;BME280;29631;49.168;9.848;2023-03-15T01:13:53;96233.66;;;9.23;77.96
40502;BME280;29631;49.168;9.848;2023-03-15T01:16:19;96231.22;;;9.15;78.16
40502;BME280;29631;49.168;9.848;2023-03-15T01:18:45;96270.84;;;9.33;77.90
40502;BME280;29631;49.168;9.848;2023-03-15T01:21:14;96246.19;;;9.21;78.00
40502;BME280;29631;49.168;9.848;2023-03-15T01:23:40;96244.16;;;9.23;78.53
40502;BME280;29631;49.168;9.848;2023-03-15T01:26:10;96217.94;;;9.03;78.61
40502;BME280;29631;49.168;9.848;2023-03-15T01:28:37;96236.50;;;9.21;78.90
40502;BME280;29631;49.168;9.848;2023-03-15T01:31:03;96251.44;;;9.21;78.52
40502;BME280;29631;49.168;9.848;2023-03-15T01:33:30;96262.97;;;9.26;78.49
40502;BME280;29631;49.168;9.848;2023-03-15T01:36:05;96270.06;;;9.19;78.40
40502;BME280;29631;49.168;9.848;2023-03-15T01:38:32;96259.72;;;9.24;78.45
40502;BME280;29631;49.168;9.848;2023-03-15T01:40:59;96254.31;;;9.13;78.86
40502;BME280;29631;49.168;9.848;2023-03-15T01:43:29;96264.63;;;9.14;78.80
40502;BME280;29631;49.168;9.848;2023-03-15T01:46:31;96260.78;;;9.04;78.57
40502;BME280;29631;49.168;9.848;2023-03-15T01:54:53;96280.22;;;8.96;78.68
40502;BME280;29631;49.168;9.848;2023-03-15T02:00:08;96285.47;;;8.90;79.35
40502;BME280;29631;49.168;9.848;2023-03-15T02:02:40;96283.84;;;8.89;79.29
40502;BME280;29631;49.168;9.848;2023-03-15T02:05:16;96276.59;;;8.78;78.45
40502;BME280;29631;49.168;9.848;2023-03-15T02:07:45;96287.50;;;8.81;79.65
40502;BME280;29631;49.168;9.848;2023-03-15T02:10:30;96279.44;;;8.76;78.94
40502;BME280;29631;49.168;9.848;2023-03-15T02:12:58;96298.44;;;8.91;79.16
40502;BME280;29631;49.168;9.848;2023-03-15T02:15:24;96312.19;;;8.87;79.08
40502;BME280;29631;49.168;9.848;2023-03-15T02:17:50;96314.59;;;8.88;78.64
40502;BME280;29631;49.168;9.848;2023-03-15T02:23:21;96311.16;;;8.68;78.56
40502;BME280;29631;49.168;9.848;2023-03-15T02:28:38;96315.19;;;8.58;79.45
40502;BME280;29631;49.168;9.848;2023-03-15T02:31:05;96318.63;;;8.59;78.71
40502;BME280;29631;49.168;9.848;2023-03-15T02:33:43;96323.88;;;8.46;79.75
40502;BME280;29631;49.168;9.848;2023-03-15T02:36:26;96340.84;;;8.50;79.29
40502;BME280;29631;49.168;9.848;2023-03-15T02:38:53;96329.72;;;8.48;79.52
40502;BME280;29631;49.168;9.848;2023-03-15T02:41:31;96337.59;;;8.48;79.75
40502;BME280;29631;49.168;9.848;2023-03-15T02:44:05;96345.09;;;8.51;79.26
40502;BME280;29631;49.168;9.848;2023-03-15T02:46:32;96353.75;;;8.45;79.80
40502;BME280;29631;49.168;9.848;2023-03-15T02:48:59;96324.66;;;8.27;78.67
40502;BME280;29631;49.168;9.848;2023-03-15T02:51:28;96350.47;;;8.23;79.78
40502;BME280;29631;49.168;9.848;2023-03-15T02:53:54;96349.06;;;8.34;79.86
40502;BME280;29631;49.168;9.848;2023-03-15T02:56:20;96347.66;;;8.31;79.78
40502;BME280;29631;49.168;9.848;2023-03-15T02:58:46;96311.97;;;7.90;79.72
40502;BME280;29631;49.168;9.848;2023-03-15T03:01:13;96363.00;;;8.28;79.50
40502;BME280;29631;49.168;9.848;2023-03-15T03:03:40;96372.50;;;8.29;79.84
40502;BME280;29631;49.168;9.848;2023-03-15T03:06:08;96352.00;;;8.05;79.32
40502;BME280;29631;49.168;9.848;2023-03-15T03:08:34;96370.03;;;8.21;80.01
40502;BME280;29631;49.168;9.848;2023-03-15T03:11:00;96357.25;;;8.05;80.10
40502;BME280;29631;49.168;9.848;2023-03-15T03:13:25;96285.41;;;7.59;80.04
40502;BME280;29631;49.168;9.848;2023-03-15T03:15:51;96373.41;;;8.08;79.50
40502;BME280;29631;49.168;9.848;2023-03-15T03:18:32;96380.88;;;8.05;80.36
40502;BME280;29631;49.168;9.848;2023-03-15T03:21:03;96367.28;;;7.95;80.06
40502;BME280;29631;49.168;9.848;2023-03-15T03:23:30;96406.41;;;8.17;80.07
40502;BME280;29631;49.168;9.848;2023-03-15T03:25:57;96374.41;;;8.01;79.58
40502;BME280;29631;49.168;9.848;2023-03-15T03:28:25;96403.34;;;8.14;79.53
40502;BME280;29631;49.168;9.848;2023-03-15T03:30:53;96404.50;;;8.11;80.46
40502;BME280;29631;49.168;9.848;2023-03-15T03:33:19;96430.41;;;8.21;79.76
40502;BME280;29631;49.168;9.848;2023-03-15T03:35:46;96444.56;;;8.20;79.25
40502;BME280;29631;49.168;9.848;2023-03-15T03:38:12;96438.09;;;8.16;79.55
40502;BME280;29631;49.168;9.848;2023-03-15T03:40:39;96444.84;;;8.04;79.52
40502;BME280;29631;49.168;9.848;2023-03-15T03:43:06;96418.09;;;7.81;79.34
40502;BME280;29631;49.168;9.848;2023-03-15T03:45:32;96441.97;;;7.92;80.37
40502;BME280;29631;49.168;9.848;2023-03-15T03:47:58;96430.66;;;7.92;80.39
40502;BME280;29631;49.168;9.848;2023-03-15T03:50:23;96421.31;;;7.83;80.14
40502;BME280;29631;49.168;9.848;2023-03-15T03:52:49;96450.66;;;7.93;79.62
40502;BME280;29631;49.168;9.848;2023-03-15T03:55:15;96442.09;;;7.78;79.80
40502;BME280;29631;49.168;9.848;2023-03-15T03:57:42;96451.66;;;7.92;80.60
40502;BME280;29631;49.168;9.848;2023-03-15T04:00:12;96375.06;;;7.35;80.24
40502;BME280;29631;49.168;9.848;2023-03-15T04:02:41;96459.06;;;7.82;79.77
40502;BME280;29631;49.168;9.848;2023-03-15T04:05:10;96469.19;;;7.85;80.33
40502;BME280;29631;49.168;9.848;2023-03-15T04:07:37;96485.72;;;7.86;80.49
40502;BME280;29631;49.168;9.848;2023-03-15T04:10:04;96488.53;;;7.84;80.03
40502;BME280;29631;49.168;9.848;2023-03-15T04:12:30;96485.28;;;7.82;80.39
40502;BME280;29631;49.168;9.848;2023-03-15T04:14:55;96506.13;;;7.90;79.72
40502;BME280;29631;49.168;9.848;2023-03-15T04:17:21;96468.38;;;7.57;80.22
40502;BME280;29631;49.168;9.848;2023-03-15T04:19:47;96510.88;;;7.74;79.99
40502;BME280;29631;49.168;9.848;2023-03-15T04:22:13;96524.19;;;7.72;80.52
40502;BME280;29631;49.168;9.848;2023-03-15T04:24:40;96517.31;;;7.71;80.20
40502;BME280;29631;49.168;9.848;2023-03-15T04:27:06;96529.19;;;7.67;80.05
40502;BME280;29631;49.168;9.848;2023-03-15T04:29:32;96517.22;;;7.58;80.09
40502;BME280;29631;49.168;9.848;2023-03-15T04:31:58;96494.50;;;7.44;80.04
40502;BME280;29631;49.168;9.848;2023-03-15T04:34:27;96506.25;;;7.48;79.99
40502;BME280;29631;49.168;9.848;2023-03-15T04:36:54;96494.03;;;7.34;80.83
40502;BME280;29631;49.168;9.848;2023-03-15T04:39:20;96555.19;;;7.62;80.05
40502;BME280;29631;49.168;9.848;2023-03-15T04:41:46;96513.69;;;7.45;80.09
40502;BME280;29631;49.168;9.848;2023-03-15T04:44:11;96563.06;;;7.62;80.21
40502;BME280;29631;49.168;9.848;2023-03-15T04:46:43;96499.03;;;7.29;80.20
40502;BME280;29631;49.168;9.848;2023-03-15T04:49:10;96537.25;;;7.66;80.77
40502;BME280;29631;49.168;9.848;2023-03-15T04:51:35;96569.41;;;7.74;80.48
40502;BME280;29631;49.168;9.848;2023-03-15T04:54:02;96541.81;;;7.57;79.78
40502;BME280;29631;49.168;9.848;2023-03-15T04:56:28;96556.41;;;7.66;80.62
40502;BME280;29631;49.168;9.848;2023-03-15T04:58:54;96558.81;;;7.61;80.02
40502;BME280;29631;49.168;9.848;2023-03-15T05:01:30;96569.28;;;7.61;80.55
40502;BME280;29631;49.168;9.848;2023-03-15T05:03:57;96574.91;;;7.58;80.03
40502;BME280;29631;49.168;9.848;2023-03-15T05:06:23;96549.44;;;7.31;80.46
40502;BME280;29631;49.168;9.848;2023-03-15T05:08:49;96569.94;;;7.42;79.92
40502;BME280;29631;49.168;9.848;2023-03-15T05:11:15;96579.59;;;7.42;80.68
40502;BME280;29631;49.168;9.848;2023-03-15T05:13:41;96547.88;;;7.16;80.33
40502;BME280;29631;49.168;9.848;2023-03-15T05:16:07;96575.03;;;7.29;80.65
40502;BME280;29631;49.168;9.848;2023-03-15T05:18:33;96550.31;;;7.18;80.02
40502;BME280;29631;49.168;9.848;2023-03-15T05:20:58;96503.59;;;6.86;80.40
40502;BME280;29631;49.168;9.848;2023-03-15T05:23:24;96538.56;;;7.14;80.62
40502;BME280;29631;49.168;9.848;2023-03-15T05:25:52;96563.81;;;7.35;80.17
40502;BME280;29631;49.168;9.848;2023-03-15T05:28:22;96503.38;;;7.02;80.61
40502;BME280;29631;49.168;9.848;2023-03-15T05:30:50;96568.94;;;7.43;80.25
40502;BME280;29631;49.168;9.848;2023-03-15T05:33:20;96583.28;;;7.47;79.79
40502;BME280;29631;49.168;9.848;2023-03-15T05:35:46;96602.19;;;7.43;80.19
40502;BME280;29631;49.168;9.848;2023-03-15T05:38:13;96576.28;;;7.33;80.51
40502;BME280;29631;49.168;9.848;2023-03-15T05:40:42;96593.00;;;7.32;80.46
40502;BME280;29631;49.168;9.848;2023-03-15T05:43:08;96563.56;;;7.30;80.26
40502;BME280;29631;49.168;9.848;2023-03-15T05:45:34;96584.84;;;7.42;80.66
40502;BME280;29631;49.168;9.848;2023-03-15T05:48:00;96595.41;;;7.48;80.03
40502;BME280;29631;49.168;9.848;2023-03-15T05:50:25;96509.88;;;7.06;80.02
40502;BME280;29631;49.168;9.848;2023-03-15T05:52:53;96598.81;;;7.70;80.43
40502;BME280;29631;49.168;9.848;2023-03-15T05:55:19;96577.84;;;7.70;80.17
40502;BME280;29631;49.168;9.848;2023-03-15T05:57:45;96573.38;;;7.70;79.55
40502;BME280;29631;49.168;9.848;2023-03-15T06:00:12;96601.16;;;7.86;79.33
40502;BME280;29631;49.168;9.848;2023-03-15T06:02:40;96562.53;;;7.73;79.45
40502;BME280;29631;49.168;9.848;2023-03-15T06:05:06;96588.91;;;7.92;80.16
40502;BME280;29631;49.168;9.848;2023-03-15T06:07:32;96605.38;;;8.01;79.65
40502;BME280;29631;49.168;9.848;2023-03-15T06:09:58;96565.91;;;7.88;79.50
40502;BME280;29631;49.168;9.848;2023-03-15T06:12:24;96597.16;;;8.10;79.21
40502;BME280;29631;49.168;9.848;2023-03-15T06:14:50;96565.56;;;7.97;79.48
40502;BME280;29631;49.168;9.848;2023-03-15T06:17:16;96614.59;;;8.18;79.83
40502;BME280;29631;49.168;9.848;2023-03-15T06:19:41;96587.81;;;8.08;79.06
40502;BME280;29631;49.168;9.848;2023-03-15T06:22:07;96598.22;;;8.16;79.20
40502;BME280;29631;49.168;9.848;2023-03-15T06:24:33;96573.00;;;7.94;79.65
40502;BME280;29631;49.168;9.848;2023-03-15T06:26:59;96578.38;;;7.86;79.96
40502;BME280;29631;49.168;9.848;2023-03-15T06:29:25;96608.81;;;8.08;80.28
40502;BME280;29631;49.168;9.848;2023-03-15T06:31:51;96638.47;;;8.23;79.85
40502;BME280;29631;49.168;9.848;2023-03-15T06:34:18;96616.91;;;8.06;79.97
40502;BME280;29631;49.168;9.848;2023-03-15T06:36:43;96607.59;;;8.04;79.22
40502;BME280;29631;49.168;9.848;2023-03-15T06:39:11;96631.59;;;8.22;79.35
40502;BME280;29631;49.168;9.848;2023-03-15T06:41:38;96619.09;;;8.24;79.96
40502;BME280;29631;49.168;9.848;2023-03-15T06:44:04;96628.19;;;8.28;79.61
40502;BME280;29631;49.168;9.848;2023-03-15T06:46:30;96629.78;;;8.22;79.95
40502;BME280;29631;49.168;9.848;2023-03-15T06:48:56;96603.22;;;8.11;79.35
40502;BME280;29631;49.168;9.848;2023-03-15T06:51:22;96622.34;;;8.26;79.05
40502;BME280;29631;49.168;9.848;2023-03-15T06:53:48;96619.84;;;8.18;79.51
40502;BME280;29631;49.168;9.848;2023-03-15T06:56:13;96630.56;;;8.16;79.61
40502;BME280;29631;49.168;9.848;2023-03-15T06:58:39;96624.78;;;8.06;79.57
40502;BME280;29631;49.168;9.848;2023-03-15T07:01:05;96582.00;;;7.85;79.34
40502;BME280;29631;49.168;9.848;2023-03-15T07:03:31;96622.09;;;8.00;79.11
40502;BME280;29631;49.168;9.848;2023-03-15T07:05:56;96612.72;;;7.91;79.27
40502;BME280;29631;49.168;9.848;2023-03-15T07:08:24;96625.84;;;7.91;79.72
40502;BME280;29631;49.168;9.848;2023-03-15T07:10:50;96626.41;;;7.87;79.52
40502;BME280;29631;49.168;9.848;2023-03-15T07:13:17;96621.06;;;7.74;79.83
40502;BME280;29631;49.168;9.848;2023-03-15T07:15:44;96647.81;;;7.84;79.83
40502;BME280;29631;49.168;9.848;2023-03-15T07:18:09;96650.31;;;7.92;79.79
40502;BME280;29631;49.168;9.848;2023-03-15T07:20:35;96645.06;;;7.92;80.12
40502;BME280;29631;49.168;9.848;2023-03-15T07:23:01;96647.97;;;8.03;79.50
40502;BME280;29631;49.168;9.848;2023-03-15T07:25:27;96646.00;;;8.11;79.53
40502;BME280;29631;49.168;9.848;2023-03-15T07:27:53;96623.97;;;8.06;79.70
40502;BME280;29631;49.168;9.848;2023-03-15T07:30:20;96651.22;;;8.26;79.13
40502;BME280;29631;49.168;9.848;2023-03-15T07:32:46;96651.06;;;8.34;79.89
40502;BME280;29631;49.168;9.848;2023-03-15T07:35:12;96652.69;;;8.35;79.67
40502;BME280;29631;49.168;9.848;2023-03-15T07:37:38;96629.22;;;8.27;79.13
40502;BME280;29631;49.168;9.848;2023-03-15T07:40:05;96608.09;;;8.14;79.83
40502;BME280;29631;49.168;9.848;2023-03-15T07:42:38;96625.91;;;8.18;79.80
40502;BME280;29631;49.168;9.848;2023-03-15T07:45:06;96662.81;;;8.38;79.53
40502;BME280;29631;49.168;9.848;2023-03-15T07:47:32;96649.06;;;8.36;79.33
40502;BME280;29631;49.168;9.848;2023-03-15T07:49:58;96636.56;;;8.38;79.43
40502;BME280;29631;49.168;9.848;2023-03-15T07:52:24;96656.41;;;8.47;79.62
40502;BME280;29631;49.168;9.848;2023-03-15T07:54:50;96673.47;;;8.57;79.56
40502;BME280;29631;49.168;9.848;2023-03-15T07:57:16;96649.38;;;8.54;79.67
40502;BME280;29631;49.168;9.848;2023-03-15T07:59:42;96674.31;;;8.64;79.66
40502;BME280;29631;49.168;9.848;2023-03-15T08:02:11;96641.91;;;8.51;79.61
40502;BME280;29631;49.168;9.848;2023-03-15T08:04:38;96655.25;;;8.56;79.36
40502;BME280;29631;49.168;9.848;2023-03-15T08:07:04;96668.63;;;8.61;79.38
40502;BME280;29631;49.168;9.848;2023-03-15T08:09:29;96653.63;;;8.55;79.62
40502;BME280;29631;49.168;9.848;2023-03-15T08:11:57;96605.31;;;8.22;79.58
40502;BME280;29631;49.168;9.848;2023-03-15T08:14:23;96638.78;;;8.41;79.08
40502;BME280;29631;49.168;9.848;2023-03-15T08:16:49;96683.94;;;8.51;79.81
40502;BME280;29631;49.168;9.848;2023-03-15T08:19:15;96666.91;;;8.47;79.75
40502;BME280;29631;49.168;9.848;2023-03-15T08:21:41;96684.38;;;8.54;78.96
40502;BME280;29631;49.168;9.848;2023-03-15T08:24:10;96671.38;;;8.46;79.95
40502;BME280;29631;49.168;9.848;2023-03-15T08:26:36;96660.41;;;8.36;79.82
40502;BME280;29631;49.168;9.848;2023-03-15T08:29:02;96671.28;;;8.33;79.93
40502;BME280;29631;49.168;9.848;2023-03-15T08:31:28;96679.59;;;8.37;79.00
40502;BME280;29631;49.168;9.848;2023-03-15T08:33:54;96691.16;;;8.42;79.25
40502;BME280;29631;49.168;9.848;2023-03-15T08:36:20;96652.66;;;8.28;79.96
40502;BME280;29631;49.168;9.848;2023-03-15T08:38:46;96682.66;;;8.47;79.99
40502;BME280;29631;49.168;9.848;2023-03-15T08:41:12;96693.69;;;8.57;79.23
40502;BME280;29631;49.168;9.848;2023-03-15T08:43:37;96646.53;;;8.21;78.59
40502;BME280;29631;49.168;9.848;2023-03-15T08:46:03;96707.13;;;8.74;79.74
40502;BME280;29631;49.168;9.848;2023-03-15T08:48:30;96716.69;;;8.82;79.75
40502;BME280;29631;49.168;9.848;2023-03-15T08:51:04;96709.84;;;8.87;79.37
40502;BME280;29631;49.168;9.848;2023-03-15T08:53:30;96697.09;;;8.84;79.53
40502;BME280;29631;49.168;9.848;2023-03-15T08:55:56;96654.13;;;8.65;79.14
40502;BME280;29631;49.168;9.848;2023-03-15T08:58:22;96644.91;;;8.81;78.84
40502;BME280;29631;49.168;9.848;2023-03-15T09:00:49;96712.44;;;9.55;79.25
40502;BME280;29631;49.168;9.848;2023-03-15T09:03:16;96717.91;;;10.39;77.50
40502;BME280;29631;49.168;9.848;2023-03-15T09:05:43;96675.72;;;10.65;75.82
40502;BME280;29631;49.168;9.848;2023-03-15T09:08:09;96715.59;;;11.20;76.04
40502;BME280;29631;49.168;9.848;2023-03-15T09:10:35;96709.72;;;11.11;75.72
40502;BME280;29631;49.168;9.848;2023-03-15T09:13:01;96722.34;;;11.03;75.74
40502;BME280;29631;49.168;9.848;2023-03-15T09:15:27;96728.03;;;10.93;76.22
40502;BME280;29631;49.168;9.848;2023-03-15T09:17:53;96730.06;;;10.85;76.69
40502;BME280;29631;49.168;9.848;2023-03-15T09:20:19;96723.16;;;10.78;77.40
40502;BME280;29631;49.168;9.848;2023-03-15T09:22:56;96719.94;;;10.69;77.50
40502;BME280;29631;49.168;9.848;2023-03-15T09:25:22;96722.78;;;10.61;78.03
40502;BME280;29631;49.168;9.848;2023-03-15T09:27:49;96730.47;;;10.69;77.59
40502;BME280;29631;49.168;9.848;2023-03-15T09:30:15;96734.13;;;10.68;77.08
40502;BME280;29631;49.168;9.848;2023-03-15T09:32:41;96692.38;;;10.39;77.94
40502;BME280;29631;49.168;9.848;2023-03-15T09:35:16;96719.13;;;10.49;78.21
40502;BME280;29631;49.168;9.848;2023-03-15T09:37:42;96731.28;;;10.50;77.61
40502;BME280;29631;49.168;9.848;2023-03-15T09:40:33;96724.59;;;10.48;78.56
40502;BME280;29631;49.168;9.848;2023-03-15T09:43:27;96740.22;;;10.49;78.06
40502;BME280;29631;49.168;9.848;2023-03-15T09:46:22;96746.69;;;10.47;77.44
40502;BME280;29631;49.168;9.848;2023-03-15T09:51:52;96749.94;;;10.42;78.13
40502;BME280;29631;49.168;9.848;2023-03-15T09:54:25;96734.94;;;10.36;77.80
40502;BME280;29631;49.168;9.848;2023-03-15T09:57:08;96743.44;;;10.32;77.78
40502;BME280;29631;49.168;9.848;2023-03-15T09:59:42;96741.81;;;10.24;78.30
40502;BME280;29631;49.168;9.848;2023-03-15T10:02:15;96746.66;;;10.27;78.60
40502;BME280;29631;49.168;9.848;2023-03-15T10:04:43;96738.16;;;10.25;78.30
40502;BME280;29631;49.168;9.848;2023-03-15T10:07:13;96733.28;;;10.22;77.29
40502;BME280;29631;49.168;9.848;2023-03-15T10:09:41;96737.53;;;10.23;77.14
40502;BME280;29631;49.168;9.848;2023-03-15T10:12:29;96739.78;;;10.20;77.78
40502;BME280;29631;49.168;9.848;2023-03-15T10:15:35;96736.13;;;10.27;78.47
40502;BME280;29631;49.168;9.848;2023-03-15T10:18:41;96749.50;;;10.26;77.44
40502;BME280;29631;49.168;9.848;2023-03-15T10:23:55;96720.63;;;9.86;76.75
40502;BME280;29631;49.168;9.848;2023-03-15T10:26:28;96752.44;;;9.91;77.22
40502;BME280;29631;49.168;9.848;2023-03-15T10:28:57;96749.78;;;9.84;77.90
40502;BME280;29631;49.168;9.848;2023-03-15T10:31:33;96766.34;;;9.72;77.70
40502;BME280;29631;49.168;9.848;2023-03-15T10:34:02;96752.13;;;9.60;77.66
40502;BME280;29631;49.168;9.848;2023-03-15T10:36:28;96762.03;;;9.58;77.27
40502;BME280;29631;49.168;9.848;2023-03-15T10:38:54;96762.44;;;9.55;77.67
40502;BME280;29631;49.168;9.848;2023-03-15T10:41:57;96751.22;;;9.40;76.67
40502;BME280;29631;49.168;9.848;2023-03-15T10:44:25;96759.69;;;9.36;77.71
40502;BME280;29631;49.168;9.848;2023-03-15T10:47:06;96751.16;;;9.27;77.03
40502;BME280;29631;49.168;9.848;2023-03-15T10:49:35;96765.88;;;9.22;76.74
40502;BME280;29631;49.168;9.848;2023-03-15T10:52:02;96763.66;;;9.19;77.25
40502;BME280;29631;49.168;9.848;2023-03-15T10:54:32;96746.97;;;9.05;77.65
40502;BME280;29631;49.168;9.848;2023-03-15T10:57:05;96776.75;;;9.12;76.86
40502;BME280;29631;49.168;9.848;2023-03-15T10:59:37;96763.50;;;8.99;77.90
40502;BME280;29631;49.168;9.848;2023-03-15T11:02:22;96780.13;;;9.06;76.79
40502;BME280;29631;49.168;9.848;2023-03-15T11:07:36;96774.78;;;8.93;77.43
40502;BME280;29631;49.168;9.848;2023-03-15T11:10:05;96774.75;;;8.87;77.43
40502;BME280;29631;49.168;9.848;2023-03-15T11:12:32;96779.19;;;8.86;78.02
40502;BME280;29631;49.168;9.848;2023-03-15T11:15:13;96784.06;;;8.89;77.73
40502;BME280;29631;49.168;9.848;2023-03-15T11:17:45;96777.56;;;8.85;78.21
40502;BME280;29631;49.168;9.848;2023-03-15T11:20:34;96768.25;;;8.83;78.94
40502;BME280;29631;49.168;9.848;2023-03-15T11:23:16;96771.78;;;8.96;78.54
40502;BME280;29631;49.168;9.848;2023-03-15T11:25:42;96763.50;;;8.99;78.65
40502;BME280;29631;49.168;9.848;2023-03-15T11:28:18;96751.63;;;9.03;78.37
40502;BME280;29631;49.168;9.848;2023-03-15T11:30:46;96764.00;;;9.09;78.69
40502;BME280;29631;49.168;9.848;2023-03-15T11:33:57;96770.47;;;9.13;79.86
40502;BME280;29631;49.168;9.848;2023-03-15T11:36:28;96765.44;;;9.18;78.84
40502;BME280;29631;49.168;9.848;2023-03-15T11:38:58;96765.69;;;9.23;79.31
40502;BME280;29631;49.168;9.848;2023-03-15T11:41:53;96768.34;;;9.30;79.63
40502;BME280;29631;49.168;9.848;2023-03-15T11:44:42;96749.28;;;9.21;79.43
40502;BME280;29631;49.168;9.848;2023-03-15T11:47:13;96775.44;;;9.29;79.19
40502;BME280;29631;49.168;9.848;2023-03-15T11:49:53;96767.31;;;9.24;79.41
40502;BME280;29631;49.168;9.848;2023-03-15T11:52:22;96775.09;;;9.38;79.37
40502;BME280;29631;49.168;9.848;2023-03-15T11:54:50;96762.88;;;9.31;79.88
40502;BME280;29631;49.168;9.848;2023-03-15T11:57:41;96762.28;;;9.29;80.00
40502;BME280;29631;49.168;9.848;2023-03-15T12:03:32;96755.53;;;9.14;79.71
40502;BME280;29631;49.168;9.848;2023-03-15T12:06:35;96775.78;;;9.20;79.84
40502;BME280;29631;49.168;9.848;2023-03-15T12:09:46;96778.59;;;9.18;79.56
40502;BME280;29631;49.168;9.848;2023-03-15T12:11:48;96766.63;;;9.09;79.80
40502;BME280;29631;49.168;9.848;2023-03-15T12:14:35;96777.78;;;9.18;80.71
40502;BME280;29631;49.168;9.848;2023-03-15T12:20:01;96783.84;;;9.18;80.88
40502;BME280;29631;49.168;9.848;2023-03-15T12:22:35;96784.19;;;9.09;80.67
40502;BME280;29631;49.168;9.848;2023-03-15T12:28:01;96764.75;;;9.03;80.34
40502;BME280;29631;49.168;9.848;2023-03-15T12:30:41;96775.66;;;9.00;81.24
40502;BME280;29631;49.168;9.848;2023-03-15T12:33:19;96768.75;;;8.99;80.56
40502;BME280;29631;49.168;9.848;2023-03-15T12:35:46;96768.34;;;8.96;81.07
40502;BME280;29631;49.168;9.848;2023-03-15T12:38:17;96787.44;;;9.04;81.22
40502;BME280;29631;49.168;9.848;2023-03-15T12:40:55;96778.91;;;9.02;81.22
40502;BME280;29631;49.168;9.848;2023-03-15T12:43:43;96789.00;;;8.99;81.38
40502;BME280;29631;49.168;9.848;2023-03-15T12:49:38;96794.13;;;9.07;81.33
40502;BME280;29631;49.168;9.848;2023-03-15T12:57:36;96789.50;;;9.15;81.55
40502;BME280;29631;49.168;9.848;2023-03-15T13:00:17;96772.47;;;9.11;81.71
40502;BME280;29631;49.168;9.848;2023-03-15T13:02:56;96761.38;;;9.09;81.31
40502;BME280;29631;49.168;9.848;2023-03-15T13:05:53;96792.03;;;9.30;80.39
40502;BME280;29631;49.168;9.848;2023-03-15T13:08:22;96784.53;;;9.27;81.43
40502;BME280;29631;49.168;9.848;2023-03-15T13:11:18;96801.97;;;9.34;80.72
40502;BME280;29631;49.168;9.848;2023-03-15T13:14:37;96786.56;;;9.31;81.58
40502;BME280;29631;49.168;9.848;2023-03-15T13:16:57;96796.72;;;9.34;80.74
40502;BME280;29631;49.168;9.848;2023-03-15T13:19:33;96781.91;;;9.27;80.72
40502;BME280;29631;49.168;9.848;2023-03-15T13:22:11;96802.59;;;9.36;80.39
40502;BME280;29631;49.168;9.848;2023-03-15T13:24:54;96778.22;;;9.21;81.29
40502;BME280;29631;49.168;9.848;2023-03-15T13:27:55;96784.69;;;9.19;81.72
40502;BME280;29631;49.168;9.848;2023-03-15T13:38:41;96795.88;;;9.27;81.28
40502;BME280;29631;49.168;9.848;2023-03-15T13:43:49;96798.13;;;9.30;81.05
40502;BME280;29631;49.168;9.848;2023-03-15T13:46:18;96779.44;;;9.19;81.11
40502;BME280;29631;49.168;9.848;2023-03-15T13:48:46;96788.13;;;9.19;81.01
40502;BME280;29631;49.168;9.848;2023-03-15T13:51:32;96783.00;;;9.11;81.38
40502;BME280;29631;49.168;9.848;2023-03-15T13:54:07;96784.41;;;9.07;81.67
40502;BME280;29631;49.168;9.848;2023-03-15T13:57:03;96788.25;;;9.11;81.98
40502;BME280;29631;49.168;9.848;2023-03-15T13:59:37;96779.38;;;9.12;81.78
40502;BME280;29631;49.168;9.848;2023-03-15T14:02:24;96763.13;;;9.02;81.12
40502;BME280;29631;49.168;9.848;2023-03-15T14:05:02;96790.16;;;9.17;81.14
40502;BME280;29631;49.168;9.848;2023-03-15T14:07:42;96778.78;;;9.10;81.21
40502;BME280;29631;49.168;9.848;2023-03-15T14:10:29;96791.94;;;9.17;82.41
40502;BME280;29631;49.168;9.848;2023-03-15T14:12:56;96770.47;;;9.13;82.27
40502;BME280;29631;49.168;9.848;2023-03-15T14:15:40;96767.84;;;9.13;81.73
40502;BME280;29631;49.168;9.848;2023-03-15T14:20:43;96776.81;;;9.25;81.80
40502;BME280;29631;49.168;9.848;2023-03-15T14:23:14;96794.31;;;9.39;81.51